Time;durP1;ratioP1;P1;durP2;ratioP2;P2;SDS_P1;SDS_P2;PMS_P1;PMS_P2;Temp;Humidity;BMP_temperature;BMP_pressure;BME280_temperature;BME280_humidity;BME280_pressure;Samples;Min_cycle;Max_cycle;Signal;HPM_P1;HPM_P2
2023/04/23 00:01:15;;;;;;;6.63;5.60;;;14.80;99.90;;;;;;5005021;28;20226;-80
2023/04/23 00:03:42;;;;;;;7.83;5.97;;;14.80;99.90;;;;;;5005784;28;20271;-80
2023/04/23 00:06:10;;;;;;;7.60;6.07;;;14.80;99.90;;;;;;5007534;28;20724;-80
2023/04/23 00:08:39;;;;;;;7.70;5.73;;;14.70;99.90;;;;;;5004992;28;20232;-80
2023/04/23 00:11:07;;;;;;;6.40;5.83;;;14.80;99.90;;;;;;5006587;28;20252;-80
2023/04/23 00:13:36;;;;;;;7.47;5.97;;;14.70;99.90;;;;;;4999084;28;20667;-79
2023/04/23 00:16:04;;;;;;;12.00;6.33;;;14.80;99.90;;;;;;4999021;28;20291;-80
2023/04/23 00:18:31;;;;;;;7.27;5.97;;;14.70;99.90;;;;;;4995315;28;20583;-80
2023/04/23 00:20:58;;;;;;;6.50;5.80;;;14.80;99.90;;;;;;5014739;28;20902;-80
2023/04/23 00:23:25;;;;;;;5.73;5.23;;;14.70;99.90;;;;;;4997547;28;20224;-80
2023/04/23 00:25:52;;;;;;;5.57;4.90;;;14.70;99.90;;;;;;4998725;28;20225;-80
2023/04/23 00:28:19;;;;;;;6.73;6.13;;;14.80;99.90;;;;;;5001957;28;20221;-80
2023/04/23 00:30:47;;;;;;;7.47;5.97;;;14.80;99.90;;;;;;4999744;28;20289;-80
2023/04/23 00:33:14;;;;;;;6.13;5.53;;;14.80;99.90;;;;;;4999606;28;21502;-80
2023/04/23 00:35:41;;;;;;;8.00;6.17;;;14.80;99.90;;;;;;5003782;28;20252;-80
2023/04/23 00:38:07;;;;;;;6.23;5.63;;;14.80;99.90;;;;;;5002201;28;20231;-80
2023/04/23 00:40:34;;;;;;;8.97;6.30;;;14.80;99.90;;;;;;5013720;28;20234;-81
2023/04/23 00:43:02;;;;;;;6.77;5.70;;;14.80;99.90;;;;;;4995693;28;20241;-80
2023/04/23 00:45:28;;;;;;;8.40;6.70;;;14.80;99.90;;;;;;4997713;28;20226;-80
2023/04/23 00:47:57;;;;;;;6.23;5.63;;;14.80;99.90;;;;;;5016704;28;20296;-80
2023/04/23 00:50:25;;;;;;;6.60;5.90;;;14.80;99.90;;;;;;4996311;28;20225;-80
2023/04/23 00:52:52;;;;;;;7.37;6.67;;;14.70;99.90;;;;;;4997580;28;20237;-80
2023/04/23 00:55:20;;;;;;;9.77;7.33;;;14.70;99.90;;;;;;4995754;28;20229;-81
2023/04/23 00:57:47;;;;;;;8.27;7.47;;;14.70;99.90;;;;;;4997807;28;20291;-81
2023/04/23 01:00:15;;;;;;;8.70;7.20;;;14.60;99.90;;;;;;4993695;28;20225;-81
2023/04/23 01:02:43;;;;;;;8.30;7.33;;;14.60;99.90;;;;;;4999377;28;20225;-81
2023/04/23 01:05:14;;;;;;;9.63;7.73;;;14.50;99.90;;;;;;4993548;28;20225;-81
2023/04/23 01:07:42;;;;;;;9.17;8.27;;;14.40;99.90;;;;;;4994464;28;20233;-80
2023/04/23 01:10:10;;;;;;;11.30;9.33;;;14.40;99.90;;;;;;4997620;28;20745;-81
2023/04/23 01:12:37;;;;;;;9.73;8.73;;;14.30;99.90;;;;;;4997180;28;20229;-81
2023/04/23 01:15:06;;;;;;;10.50;8.57;;;14.20;99.90;;;;;;4999682;28;20308;-81
2023/04/23 01:17:34;;;;;;;13.73;10.57;;;14.20;99.90;;;;;;4993500;28;20225;-81
2023/04/23 01:20:00;;;;;;;12.50;11.20;;;14.10;99.90;;;;;;4994061;28;20216;-82
2023/04/23 01:22:28;;;;;;;12.27;11.07;;;14.10;99.90;;;;;;4991341;28;20234;-81
2023/04/23 01:24:55;;;;;;;11.80;10.63;;;14.00;99.90;;;;;;4989315;28;20228;-81
2023/04/23 01:27:23;;;;;;;12.13;10.60;;;14.00;99.90;;;;;;4996673;28;20226;-82
2023/04/23 01:29:50;;;;;;;12.50;11.30;;;14.00;99.90;;;;;;4999673;28;20239;-81
2023/04/23 01:32:18;;;;;;;12.97;10.97;;;13.90;99.90;;;;;;4995928;28;20220;-80
2023/04/23 01:34:47;;;;;;;13.57;11.73;;;13.90;99.90;;;;;;4997441;28;20239;-80
2023/04/23 01:37:16;;;;;;;12.27;10.97;;;13.80;99.90;;;;;;4998118;28;20224;-81
2023/04/23 01:39:44;;;;;;;12.23;11.03;;;13.80;99.90;;;;;;4999415;28;20324;-80
2023/04/23 01:42:11;;;;;;;12.40;11.07;;;13.80;99.90;;;;;;4992189;28;20213;-81
2023/04/23 01:44:39;;;;;;;11.93;10.63;;;13.80;99.90;;;;;;4996787;28;20304;-81
2023/04/23 01:47:06;;;;;;;12.07;10.70;;;13.80;99.90;;;;;;4997325;28;20321;-80
2023/04/23 01:49:33;;;;;;;11.80;10.37;;;13.70;99.90;;;;;;4998178;28;20252;-80
2023/04/23 01:52:00;;;;;;;12.80;11.47;;;13.70;99.90;;;;;;4998748;28;20931;-81
2023/04/23 01:54:27;;;;;;;12.03;10.57;;;13.70;99.90;;;;;;5019527;28;20233;-80
2023/04/23 01:56:55;;;;;;;10.73;9.73;;;13.70;99.90;;;;;;5027741;22;20234;-80
2023/04/23 01:59:22;;;;;;;11.93;10.27;;;13.60;99.90;;;;;;5024621;28;20219;-79
2023/04/23 02:01:50;;;;;;;10.77;9.73;;;13.60;99.90;;;;;;5024988;28;20216;-79
2023/04/23 02:04:18;;;;;;;10.43;9.43;;;13.60;99.90;;;;;;5038418;28;20636;-79
2023/04/23 02:06:48;;;;;;;11.07;9.97;;;13.60;99.90;;;;;;5023287;28;20735;-79
2023/04/23 02:09:15;;;;;;;10.27;9.27;;;13.60;99.90;;;;;;5023253;28;20308;-79
2023/04/23 02:11:41;;;;;;;10.63;9.53;;;13.60;99.90;;;;;;5022765;28;20299;-80
2023/04/23 02:14:10;;;;;;;11.13;9.20;;;13.50;99.90;;;;;;5017337;28;20375;-79
2023/04/23 02:16:37;;;;;;;10.07;9.10;;;13.50;99.90;;;;;;5016476;28;20309;-79
2023/04/23 02:19:04;;;;;;;10.67;9.57;;;13.50;99.90;;;;;;5024560;28;20228;-79
2023/04/23 02:21:31;;;;;;;12.30;10.07;;;13.60;99.90;;;;;;5023609;28;20233;-79
2023/04/23 02:23:58;;;;;;;15.57;13.97;;;13.50;99.90;;;;;;5020129;28;20761;-80
2023/04/23 02:26:25;;;;;;;16.37;14.70;;;13.50;99.90;;;;;;5021654;28;20236;-80
2023/04/23 02:28:51;;;;;;;19.30;17.30;;;13.40;99.90;;;;;;5024958;28;20683;-80
2023/04/23 02:31:20;;;;;;;20.10;17.50;;;13.30;99.90;;;;;;5024157;28;20319;-79
2023/04/23 02:33:47;;;;;;;20.67;18.23;;;13.20;99.90;;;;;;5024880;28;20304;-80
2023/04/23 02:36:14;;;;;;;22.83;19.07;;;13.00;99.90;;;;;;5025431;28;20224;-80
2023/04/23 02:38:43;;;;;;;22.27;19.87;;;12.80;99.90;;;;;;5025943;28;20330;-80
2023/04/23 02:41:10;;;;;;;22.93;20.43;;;12.70;99.90;;;;;;5020133;28;20235;-80
2023/04/23 02:43:37;;;;;;;22.27;19.77;;;12.50;99.90;;;;;;5027068;28;20221;-80
2023/04/23 02:46:07;;;;;;;23.27;20.77;;;12.40;99.90;;;;;;5022582;28;20240;-79
2023/04/23 02:48:38;;;;;;;23.93;20.57;;;12.20;99.90;;;;;;5027112;28;20293;-79
2023/04/23 02:51:05;;;;;;;25.33;22.10;;;12.10;99.90;;;;;;5021233;28;20288;-79
2023/04/23 02:53:32;;;;;;;28.07;23.07;;;12.00;99.90;;;;;;5021596;28;20243;-80
2023/04/23 02:56:00;;;;;;;25.67;21.97;;;11.90;99.90;;;;;;5019301;28;20277;-81
2023/04/23 02:58:27;;;;;;;26.70;23.20;;;11.80;99.90;;;;;;5017536;28;20229;-81
2023/04/23 03:00:56;;;;;;;25.63;21.77;;;11.70;99.90;;;;;;5018228;28;20224;-81
2023/04/23 03:03:25;;;;;;;25.47;22.63;;;11.50;99.90;;;;;;5018970;28;20245;-80
2023/04/23 03:05:54;;;;;;;28.93;24.37;;;11.60;99.90;;;;;;5018140;28;21091;-80
2023/04/23 03:08:21;;;;;;;27.63;23.83;;;11.50;99.90;;;;;;5015370;28;20221;-80
2023/04/23 03:10:48;;;;;;;25.40;22.57;;;11.50;99.90;;;;;;5012673;28;20223;-80
2023/04/23 03:13:15;;;;;;;28.13;23.50;;;11.40;99.90;;;;;;5007332;28;20309;-80
2023/04/23 03:15:42;;;;;;;27.07;23.17;;;11.40;99.90;;;;;;5022408;28;20743;-80
2023/04/23 03:18:09;;;;;;;31.23;23.47;;;11.40;99.90;;;;;;5019173;28;20264;-81
2023/04/23 03:20:37;;;;;;;27.80;24.10;;;11.30;99.90;;;;;;5016896;28;20219;-80
2023/04/23 03:23:06;;;;;;;29.50;23.97;;;11.30;99.90;;;;;;5020034;28;20263;-80
2023/04/23 03:25:33;;;;;;;30.00;25.37;;;11.30;99.90;;;;;;5005441;28;20291;-79
2023/04/23 03:28:00;;;;;;;29.87;24.53;;;11.20;99.90;;;;;;5015059;28;20287;-78
2023/04/23 03:30:29;;;;;;;31.30;25.13;;;11.20;99.90;;;;;;5015154;28;20230;-77
2023/04/23 03:32:56;;;;;;;28.97;23.00;;;11.20;99.90;;;;;;5014693;28;20217;-78
2023/04/23 03:35:23;;;;;;;28.67;23.93;;;11.20;99.90;;;;;;5016752;28;20714;-78
2023/04/23 03:37:51;;;;;;;28.23;22.70;;;11.20;99.90;;;;;;5032897;28;20286;-78
2023/04/23 03:40:20;;;;;;;28.87;22.70;;;11.10;99.90;;;;;;5011312;28;20239;-78
2023/04/23 03:42:49;;;;;;;25.93;21.50;;;11.10;99.90;;;;;;5035450;28;20240;-79
2023/04/23 03:45:19;;;;;;;27.60;22.10;;;11.10;99.90;;;;;;5020655;28;20303;-78
2023/04/23 03:47:46;;;;;;;25.90;21.70;;;11.00;99.90;;;;;;5030906;28;20232;-78
2023/04/23 03:50:12;;;;;;;29.13;22.53;;;11.00;99.90;;;;;;5009262;28;20316;-78
2023/04/23 03:52:40;;;;;;;31.13;22.43;;;10.90;99.90;;;;;;5018618;28;20409;-78
2023/04/23 03:55:12;;;;;;;27.60;21.63;;;10.90;99.90;;;;;;5020411;28;20219;-78
2023/04/23 03:57:45;;;;;;;27.53;22.67;;;10.90;99.90;;;;;;5018155;28;20231;-78
2023/04/23 04:00:24;;;;;;;26.93;20.93;;;10.80;99.90;;;;;;5022984;28;20227;-79
2023/04/23 04:02:50;;;;;;;29.67;20.73;;;10.80;99.90;;;;;;5022784;28;20220;-78
2023/04/23 04:05:18;;;;;;;27.47;21.67;;;10.80;99.90;;;;;;5019913;28;20229;-78
2023/04/23 04:07:45;;;;;;;24.03;20.17;;;10.70;99.90;;;;;;5012917;28;20772;-79
2023/04/23 04:10:12;;;;;;;26.43;20.63;;;10.70;99.90;;;;;;5015838;28;20224;-78
2023/04/23 04:12:40;;;;;;;26.00;19.57;;;10.70;99.90;;;;;;5013552;28;20247;-78
2023/04/23 04:15:12;;;;;;;21.23;17.83;;;10.70;99.90;;;;;;5016002;28;20342;-79
2023/04/23 04:17:40;;;;;;;19.53;16.43;;;10.60;99.90;;;;;;5019198;28;20828;-79
2023/04/23 04:20:08;;;;;;;20.23;16.83;;;10.60;99.90;;;;;;5018477;28;20245;-79
2023/04/23 04:22:35;;;;;;;21.20;17.27;;;10.60;99.90;;;;;;5016756;28;20228;-79
2023/04/23 04:25:04;;;;;;;20.33;16.20;;;10.60;99.90;;;;;;5016809;28;20221;-79
2023/04/23 04:27:32;;;;;;;18.57;15.10;;;10.50;99.90;;;;;;5006826;28;21022;-78
2023/04/23 04:30:00;;;;;;;19.70;15.43;;;10.50;99.90;;;;;;5016440;28;20314;-79
2023/04/23 04:32:28;;;;;;;19.67;15.03;;;10.50;99.90;;;;;;5015168;28;20217;-79
2023/04/23 04:34:55;;;;;;;20.13;13.77;;;10.50;99.90;;;;;;5015349;28;20901;-78
2023/04/23 04:37:21;;;;;;;19.13;13.53;;;10.50;99.90;;;;;;5013812;28;20220;-79
2023/04/23 04:39:48;;;;;;;15.03;13.43;;;10.50;99.90;;;;;;5006179;28;20220;-79
2023/04/23 04:42:15;;;;;;;17.23;13.27;;;10.50;99.90;;;;;;5015681;28;20618;-79
2023/04/23 04:44:43;;;;;;;15.70;12.07;;;10.50;99.90;;;;;;5018268;28;20220;-79
2023/04/23 04:47:10;;;;;;;15.03;11.63;;;10.40;99.90;;;;;;5007658;28;20234;-79
2023/04/23 04:49:38;;;;;;;15.40;11.47;;;10.40;99.90;;;;;;5018944;28;20228;-79
2023/04/23 04:52:05;;;;;;;13.63;11.17;;;10.40;99.90;;;;;;5009016;28;20260;-79
2023/04/23 04:54:32;;;;;;;14.37;11.37;;;10.40;99.90;;;;;;5001532;28;20269;-79
2023/04/23 04:56:59;;;;;;;14.00;10.43;;;10.40;99.90;;;;;;5031322;28;20260;-79
2023/04/23 04:59:26;;;;;;;12.47;10.53;;;10.40;99.90;;;;;;5016451;28;20232;-79
2023/04/23 05:01:53;;;;;;;15.10;10.33;;;10.40;99.90;;;;;;5012201;28;20776;-79
2023/04/23 05:04:20;;;;;;;12.07;8.77;;;10.40;99.90;;;;;;5028094;28;20876;-79
2023/04/23 05:06:48;;;;;;;11.40;8.57;;;10.50;99.90;;;;;;5019565;28;20651;-79
2023/04/23 05:09:15;;;;;;;11.70;7.83;;;10.40;99.90;;;;;;5010947;28;20299;-79
2023/04/23 05:11:42;;;;;;;17.60;8.97;;;10.40;99.90;;;;;;5012911;28;20224;-79
2023/04/23 05:14:09;;;;;;;10.67;7.20;;;10.40;99.90;;;;;;5017192;28;20227;-79
2023/04/23 05:16:36;;;;;;;10.17;7.40;;;10.40;99.90;;;;;;5017215;28;20235;-79
2023/04/23 05:19:03;;;;;;;9.40;6.30;;;10.40;99.90;;;;;;5018014;28;20233;-79
2023/04/23 05:21:30;;;;;;;11.90;7.27;;;10.40;99.90;;;;;;5009845;28;20335;-79
2023/04/23 05:23:58;;;;;;;10.70;7.63;;;10.40;99.90;;;;;;5015653;28;20222;-79
2023/04/23 05:26:25;;;;;;;9.13;6.80;;;10.40;99.90;;;;;;5021511;28;20231;-78
2023/04/23 05:28:51;;;;;;;9.93;7.63;;;10.40;99.90;;;;;;5006559;28;20233;-79
2023/04/23 05:31:18;;;;;;;11.23;7.77;;;10.40;99.90;;;;;;5002883;28;20220;-78
2023/04/23 05:33:46;;;;;;;11.70;7.50;;;10.40;99.90;;;;;;5020069;28;20273;-78
2023/04/23 05:36:13;;;;;;;8.50;7.33;;;10.30;99.90;;;;;;5017165;28;20746;-78
2023/04/23 05:38:39;;;;;;;9.20;7.53;;;10.30;99.90;;;;;;5020753;28;20224;-78
2023/04/23 05:41:08;;;;;;;11.17;8.10;;;10.40;99.90;;;;;;5018252;28;20311;-79
2023/04/23 05:43:35;;;;;;;9.63;8.20;;;10.40;99.90;;;;;;5020079;28;20228;-79
2023/04/23 05:46:03;;;;;;;9.60;8.40;;;10.40;99.90;;;;;;5026821;28;20974;-80
2023/04/23 05:48:30;;;;;;;9.67;8.70;;;10.40;99.90;;;;;;5027849;28;20242;-79
2023/04/23 05:50:56;;;;;;;11.23;8.60;;;10.40;99.90;;;;;;5037625;28;20251;-79
2023/04/23 05:53:23;;;;;;;9.37;8.03;;;10.40;99.90;;;;;;5021776;28;20223;-79
2023/04/23 05:55:50;;;;;;;8.40;7.50;;;10.40;99.90;;;;;;5010434;28;20308;-78
2023/04/23 05:58:18;;;;;;;8.17;6.40;;;10.50;99.90;;;;;;5016299;28;20312;-79
2023/04/23 06:00:45;;;;;;;8.93;6.50;;;10.50;99.90;;;;;;5017592;28;20251;-79
2023/04/23 06:03:12;;;;;;;7.57;6.00;;;10.50;99.90;;;;;;5003117;28;20233;-79
2023/04/23 06:05:38;;;;;;;8.87;5.47;;;10.50;99.90;;;;;;5024186;28;20235;-79
2023/04/23 06:08:05;;;;;;;6.70;5.30;;;10.50;99.90;;;;;;5033508;28;20964;-79
2023/04/23 06:10:32;;;;;;;6.57;5.70;;;10.50;99.90;;;;;;5021500;28;20221;-78
2023/04/23 06:12:59;;;;;;;6.40;5.47;;;10.50;99.90;;;;;;5030055;28;20227;-78
2023/04/23 06:15:26;;;;;;;8.10;5.30;;;10.50;99.90;;;;;;5019466;28;20599;-79
2023/04/23 06:17:53;;;;;;;6.73;5.13;;;10.50;99.90;;;;;;5021790;28;20593;-79
2023/04/23 06:20:20;;;;;;;6.07;4.43;;;10.60;99.90;;;;;;5022591;28;20222;-78
2023/04/23 06:22:47;;;;;;;6.03;4.60;;;10.60;99.90;;;;;;5025224;28;20230;-78
2023/04/23 06:25:13;;;;;;;7.03;4.83;;;10.60;99.90;;;;;;5023739;28;20280;-78
2023/04/23 06:27:40;;;;;;;6.77;4.57;;;10.60;99.90;;;;;;4999259;28;20232;-78
2023/04/23 06:30:14;;;;;;;7.47;5.17;;;10.60;99.90;;;;;;5002192;28;20244;-78
2023/04/23 06:32:42;;;;;;;8.80;5.07;;;10.60;99.90;;;;;;5005759;28;20959;-78
2023/04/23 06:35:09;;;;;;;6.47;4.93;;;10.60;99.90;;;;;;5020068;28;20302;-80
2023/04/23 06:37:36;;;;;;;6.23;5.40;;;10.60;99.90;;;;;;5016723;28;20233;-78
2023/04/23 06:40:02;;;;;;;7.13;5.23;;;10.60;99.90;;;;;;5010803;28;20224;-78
2023/04/23 06:42:29;;;;;;;6.83;5.13;;;10.60;99.90;;;;;;5020642;28;20229;-78
2023/04/23 06:45:16;;;;;;;7.77;5.67;;;10.60;99.90;;;;;;5040077;28;20223;-79
2023/04/23 06:47:44;;;;;;;10.17;5.70;;;10.60;99.90;;;;;;5022823;28;20227;-79
2023/04/23 06:50:11;;;;;;;7.07;5.30;;;10.60;99.90;;;;;;5022637;28;20238;-78
2023/04/23 06:52:37;;;;;;;7.83;5.60;;;10.70;99.90;;;;;;5022147;28;20236;-78
2023/04/23 06:55:05;;;;;;;8.03;5.53;;;10.70;99.90;;;;;;5022997;28;20216;-78
2023/04/23 06:57:31;;;;;;;9.33;5.77;;;10.80;99.90;;;;;;5021819;28;20233;-78
2023/04/23 06:59:59;;;;;;;6.83;5.00;;;10.80;99.90;;;;;;5022870;28;20224;-79
2023/04/23 07:02:30;;;;;;;7.13;5.30;;;10.80;99.90;;;;;;5021187;28;20472;-78
2023/04/23 07:04:58;;;;;;;6.30;4.37;;;10.80;99.90;;;;;;5023630;28;20221;-79
2023/04/23 07:07:25;;;;;;;5.77;4.67;;;10.80;99.90;;;;;;5024068;28;20233;-79
2023/04/23 07:09:52;;;;;;;5.60;4.13;;;10.90;99.90;;;;;;5023748;28;21483;-79
2023/04/23 07:12:18;;;;;;;6.43;4.37;;;10.90;99.90;;;;;;5022046;28;20215;-78
2023/04/23 07:14:45;;;;;;;5.67;4.17;;;11.00;99.90;;;;;;5022040;28;20228;-81
2023/04/23 07:17:12;;;;;;;5.67;4.13;;;11.00;99.90;;;;;;5020219;28;20238;-79
2023/04/23 07:19:39;;;;;;;6.63;4.50;;;11.10;99.90;;;;;;5023963;28;20233;-79
2023/04/23 07:22:07;;;;;;;5.67;4.90;;;11.20;99.90;;;;;;5018359;28;20217;-79
2023/04/23 07:24:33;;;;;;;5.80;4.83;;;11.30;99.90;;;;;;5023903;28;20850;-79
2023/04/23 07:27:01;;;;;;;8.90;4.77;;;11.30;99.90;;;;;;5022922;28;20255;-79
2023/04/23 07:29:28;;;;;;;7.60;4.70;;;11.50;99.90;;;;;;5008357;28;20307;-79
2023/04/23 07:31:55;;;;;;;6.97;4.87;;;11.60;99.90;;;;;;5028527;28;20243;-79
2023/04/23 07:34:21;;;;;;;6.10;4.13;;;11.70;99.90;;;;;;5020842;28;20638;-79
2023/04/23 07:36:48;;;;;;;6.33;4.27;;;11.80;99.90;;;;;;5038362;28;20245;-79
2023/04/23 07:39:16;;;;;;;5.27;4.40;;;11.90;99.90;;;;;;5021700;28;20586;-79
2023/04/23 07:41:43;;;;;;;5.30;4.43;;;12.00;99.90;;;;;;5027188;28;20305;-79
2023/04/23 07:44:09;;;;;;;4.43;4.03;;;12.00;99.90;;;;;;5023216;28;20978;-79
2023/04/23 07:46:36;;;;;;;8.07;5.50;;;12.10;99.90;;;;;;5023383;28;20235;-79
2023/04/23 07:49:03;;;;;;;6.17;5.23;;;12.20;99.90;;;;;;5024868;28;20224;-79
2023/04/23 07:51:30;;;;;;;7.60;5.50;;;12.30;99.90;;;;;;5020196;28;20242;-79
2023/04/23 07:53:57;;;;;;;8.27;5.43;;;12.30;99.90;;;;;;5021403;28;20231;-80
2023/04/23 07:56:25;;;;;;;7.83;5.67;;;12.40;99.90;;;;;;5020221;28;20871;-79
2023/04/23 07:58:55;;;;;;;7.17;5.43;;;12.40;99.90;;;;;;5031949;28;20231;-79
2023/04/23 08:01:22;;;;;;;6.00;5.40;;;12.60;99.90;;;;;;5021808;28;20223;-81
2023/04/23 08:03:48;;;;;;;7.67;5.67;;;12.60;99.90;;;;;;5014791;28;20228;-83
2023/04/23 08:06:15;;;;;;;6.40;5.73;;;12.80;99.90;;;;;;5012693;28;20239;-81
2023/04/23 08:08:42;;;;;;;5.80;5.07;;;12.90;99.90;;;;;;5020178;28;20232;-81
2023/04/23 08:11:09;;;;;;;5.93;5.33;;;13.10;99.90;;;;;;5008528;28;20224;-82
2023/04/23 08:13:37;;;;;;;7.27;5.70;;;13.20;99.90;;;;;;5036766;28;20216;-82
2023/04/23 08:16:05;;;;;;;7.73;5.30;;;13.40;99.90;;;;;;5019561;28;20323;-82
2023/04/23 08:18:32;;;;;;;6.77;5.27;;;13.60;99.90;;;;;;5019129;28;20226;-81
2023/04/23 08:20:59;;;;;;;6.67;4.97;;;13.70;99.90;;;;;;5011663;28;20297;-82
2023/04/23 08:23:26;;;;;;;9.37;5.70;;;14.00;99.90;;;;;;5039039;28;20308;-82
2023/04/23 08:25:52;;;;;;;7.70;5.90;;;14.20;99.90;;;;;;5021251;28;20244;-81
2023/04/23 08:28:19;;;;;;;6.80;5.37;;;14.50;99.90;;;;;;5018914;28;20329;-82
2023/04/23 08:30:47;;;;;;;8.83;5.90;;;14.80;99.90;;;;;;5020856;28;20221;-82
2023/04/23 08:33:14;;;;;;;6.87;5.50;;;15.00;99.90;;;;;;5017133;28;20231;-82
2023/04/23 08:35:41;;;;;;;8.18;5.28;;;15.20;99.90;;;;;;5018502;28;20320;-82
2023/04/23 08:38:08;;;;;;;7.25;5.80;;;15.50;99.90;;;;;;5013813;28;20209;-81
2023/04/23 08:40:37;;;;;;;6.68;4.93;;;15.70;99.90;;;;;;5011119;28;20330;-81
2023/04/23 08:43:10;;;;;;;7.60;5.47;;;15.80;99.90;;;;;;5023597;28;20228;-82
2023/04/23 08:45:40;;;;;;;9.57;5.57;;;15.90;98.80;;;;;;5030085;28;20232;-81
2023/04/23 08:48:10;;;;;;;5.90;4.93;;;15.90;98.80;;;;;;5016460;28;20239;-82
2023/04/23 08:50:38;;;;;;;7.00;5.40;;;15.90;97.80;;;;;;5016971;28;20360;-82
2023/04/23 08:53:06;;;;;;;5.80;4.97;;;15.90;98.50;;;;;;5018820;28;20217;-81
2023/04/23 08:55:34;;;;;;;10.37;5.50;;;15.90;97.90;;;;;;5020654;28;20229;-82
2023/04/23 08:58:01;;;;;;;10.13;7.47;;;15.80;98.20;;;;;;5014680;28;20239;-81
2023/04/23 09:00:29;;;;;;;8.87;6.67;;;15.80;98.20;;;;;;4996655;28;20699;-82
2023/04/23 09:02:56;;;;;;;5.82;5.28;;;15.80;98.20;;;;;;5018284;28;20229;-82
2023/04/23 09:05:24;;;;;;;5.77;4.63;;;15.90;98.00;;;;;;5006605;28;20317;-82
2023/04/23 09:07:52;;;;;;;5.80;4.88;;;16.00;97.70;;;;;;5015621;28;20239;-81
2023/04/23 09:10:19;;;;;;;6.05;4.47;;;16.10;98.00;;;;;;5016213;28;20708;-81
2023/04/23 09:12:46;;;;;;;6.32;5.15;;;16.30;98.00;;;;;;5007918;28;20233;-81
2023/04/23 09:15:13;;;;;;;6.15;5.03;;;16.60;98.00;;;;;;5014943;28;20585;-81
2023/04/23 09:17:45;;;;;;;6.25;4.65;;;17.00;96.10;;;;;;5011580;28;20237;-82
2023/04/23 09:20:15;;;;;;;7.05;4.90;;;17.30;95.00;;;;;;4991207;28;20307;-81
2023/04/23 09:22:45;;;;;;;5.78;5.10;;;17.60;96.00;;;;;;5007606;28;20682;-80
2023/04/23 09:25:17;;;;;;;5.53;4.43;;;18.00;94.90;;;;;;5003250;28;20225;-81
2023/04/23 09:27:44;;;;;;;5.95;5.13;;;18.40;95.10;;;;;;5008978;28;20236;-81
2023/04/23 09:30:12;;;;;;;6.07;4.85;;;18.80;93.80;;;;;;5033075;28;20317;-82
2023/04/23 09:32:40;;;;;;;5.15;4.60;;;19.20;94.10;;;;;;5020012;28;20220;-82
2023/04/23 09:35:09;;;;;;;5.22;4.63;;;19.50;93.30;;;;;;5030170;28;20216;-79
2023/04/23 09:37:36;;;;;;;6.20;5.10;;;19.80;91.00;;;;;;5018337;28;20326;-79
2023/04/23 09:40:08;;;;;;;5.82;4.72;;;20.00;89.40;;;;;;5015087;28;20229;-79
2023/04/23 09:42:35;;;;;;;5.35;4.82;;;20.00;86.90;;;;;;5020114;28;20233;-79
2023/04/23 09:45:05;;;;;;;5.55;4.80;;;19.90;87.70;;;;;;5021398;28;20221;-80
2023/04/23 09:47:33;;;;;;;5.18;4.35;;;19.90;87.40;;;;;;5008997;28;20900;-79
2023/04/23 09:50:00;;;;;;;6.25;4.82;;;20.00;90.10;;;;;;5019341;28;20239;-79
2023/04/23 09:52:30;;;;;;;5.85;4.60;;;20.20;90.10;;;;;;5020618;28;20225;-80
2023/04/23 09:54:58;;;;;;;6.05;4.78;;;20.50;88.30;;;;;;5017269;28;20256;-79
2023/04/23 09:57:26;;;;;;;5.53;4.60;;;20.90;86.30;;;;;;5018051;28;20310;-80
2023/04/23 09:59:56;;;;;;;5.00;4.53;;;21.40;86.40;;;;;;5018733;28;20719;-80
2023/04/23 10:02:27;;;;;;;6.13;4.88;;;21.70;84.50;;;;;;5010199;28;20230;-80
2023/04/23 10:04:53;;;;;;;6.00;4.10;;;22.10;83.50;;;;;;5015709;28;20339;-79
2023/04/23 10:07:21;;;;;;;5.55;4.72;;;22.50;82.50;;;;;;5019448;28;20275;-80
2023/04/23 10:09:48;;;;;;;6.03;4.78;;;22.70;75.70;;;;;;5016984;28;20221;-80
2023/04/23 10:12:15;;;;;;;5.25;4.70;;;22.80;76.50;;;;;;5020348;28;20224;-80
2023/04/23 10:14:44;;;;;;;5.63;4.88;;;22.70;73.50;;;;;;5021278;28;20224;-80
2023/04/23 10:17:11;;;;;;;5.47;4.35;;;22.50;71.70;;;;;;5019290;28;20221;-79
2023/04/23 10:19:39;;;;;;;5.70;4.47;;;22.20;74.50;;;;;;5022769;28;20714;-80
2023/04/23 10:22:10;;;;;;;4.93;3.92;;;22.00;76.10;;;;;;5021548;28;20221;-79
2023/04/23 10:24:40;;;;;;;5.38;4.47;;;21.90;77.10;;;;;;5019278;28;20231;-79
2023/04/23 10:27:12;;;;;;;5.40;4.80;;;21.90;74.10;;;;;;5023696;28;20270;-80
2023/04/23 10:29:40;;;;;;;5.60;4.85;;;21.80;70.50;;;;;;5015428;28;20711;-80
2023/04/23 10:32:08;;;;;;;5.82;4.32;;;21.80;72.70;;;;;;5020799;28;20344;-80
2023/04/23 10:34:35;;;;;;;6.55;4.40;;;21.80;73.10;;;;;;5022924;28;20239;-80
2023/04/23 10:37:03;;;;;;;4.82;4.43;;;21.80;72.50;;;;;;5017815;28;20229;-80
2023/04/23 10:39:32;;;;;;;5.53;4.07;;;21.70;74.30;;;;;;5014835;28;20721;-79
2023/04/23 10:42:00;;;;;;;5.18;4.63;;;21.80;74.70;;;;;;5020034;28;20216;-80
2023/04/23 10:44:33;;;;;;;5.70;4.50;;;21.90;76.20;;;;;;5016574;28;20654;-79
2023/04/23 10:47:00;;;;;;;4.72;4.30;;;22.10;70.20;;;;;;5019729;28;20226;-81
2023/04/23 10:49:32;;;;;;;4.72;4.28;;;22.30;73.00;;;;;;5019209;28;20605;-80
2023/04/23 10:52:00;;;;;;;5.38;4.68;;;22.50;70.60;;;;;;5017094;28;20221;-80
2023/04/23 10:54:30;;;;;;;4.60;4.10;;;22.70;72.50;;;;;;5022022;28;20802;-80
2023/04/23 10:57:00;;;;;;;5.80;4.78;;;22.90;71.00;;;;;;5015582;28;20283;-79
2023/04/23 10:59:29;;;;;;;5.18;4.35;;;23.00;70.90;;;;;;5019248;28;20225;-79
2023/04/23 11:01:57;;;;;;;4.82;4.35;;;23.10;71.90;;;;;;5023312;28;20904;-79
2023/04/23 11:04:25;;;;;;;6.53;5.18;;;23.30;71.30;;;;;;5023544;28;20236;-79
2023/04/23 11:06:55;;;;;;;5.68;4.55;;;23.40;71.20;;;;;;5023763;28;20316;-79
2023/04/23 11:09:30;;;;;;;5.60;5.05;;;23.60;70.30;;;;;;5019228;28;20253;-80
2023/04/23 11:11:57;;;;;;;5.70;5.07;;;23.70;69.60;;;;;;5009433;28;20221;-80
2023/04/23 11:14:34;;;;;;;5.40;4.90;;;23.90;70.70;;;;;;5022311;28;20259;-80
2023/04/23 11:17:00;;;;;;;5.70;5.20;;;24.10;68.80;;;;;;5018914;28;20228;-79
2023/04/23 11:19:28;;;;;;;5.10;4.05;;;24.20;67.60;;;;;;5017923;28;20235;-79
2023/04/23 11:22:03;;;;;;;5.35;4.60;;;24.30;69.10;;;;;;5016051;28;20225;-80
2023/04/23 11:24:32;;;;;;;5.60;5.10;;;24.50;68.60;;;;;;5023095;28;20933;-79
2023/04/23 11:27:00;;;;;;;6.32;5.57;;;24.60;66.90;;;;;;5021125;28;20225;-80
2023/04/23 11:29:28;;;;;;;6.70;5.35;;;24.60;60.70;;;;;;5023942;28;20229;-79
2023/04/23 11:31:55;;;;;;;5.80;5.30;;;24.50;63.60;;;;;;5037314;28;20225;-80
2023/04/23 11:34:22;;;;;;;6.30;5.70;;;24.40;65.60;;;;;;5020630;28;20574;-80
2023/04/23 11:36:52;;;;;;;7.07;5.50;;;24.30;63.90;;;;;;5017691;28;20233;-79
2023/04/23 11:39:20;;;;;;;6.13;5.50;;;24.20;64.60;;;;;;5016484;28;20227;-79
2023/04/23 11:41:48;;;;;;;6.95;5.88;;;24.20;65.80;;;;;;5024223;28;20275;-79
2023/04/23 11:44:15;;;;;;;6.53;5.90;;;24.30;65.10;;;;;;5020769;28;20233;-80
2023/04/23 11:46:42;;;;;;;5.85;5.25;;;24.30;65.80;;;;;;5016643;28;20231;-80
2023/04/23 11:49:09;;;;;;;6.40;5.80;;;24.50;66.40;;;;;;5014016;28;21000;-80
2023/04/23 11:51:41;;;;;;;7.75;6.20;;;24.70;66.10;;;;;;5017920;28;20225;-80
2023/04/23 11:54:08;;;;;;;6.82;6.22;;;24.90;65.50;;;;;;5019505;28;20220;-80
2023/04/23 11:56:36;;;;;;;6.70;6.05;;;25.20;66.10;;;;;;5020315;28;20247;-80
2023/04/23 11:59:03;;;;;;;6.88;6.25;;;25.40;63.80;;;;;;5011887;28;20584;-80
2023/04/23 12:01:44;;;;;;;7.15;6.53;;;25.50;65.00;;;;;;5019949;28;20627;-80
2023/04/23 12:04:12;;;;;;;7.70;7.00;;;25.50;60.70;;;;;;5021551;28;20228;-80
2023/04/23 12:06:41;;;;;;;8.85;7.95;;;25.40;61.70;;;;;;5021414;28;20286;-80
2023/04/23 12:09:09;;;;;;;6.95;6.25;;;25.40;61.70;;;;;;5033856;28;20303;-80
2023/04/23 12:11:37;;;;;;;8.50;7.70;;;25.20;62.30;;;;;;5023834;28;20232;-80
2023/04/23 12:14:04;;;;;;;8.85;7.85;;;25.00;62.10;;;;;;5021789;28;20229;-80
2023/04/23 12:16:36;;;;;;;8.02;7.22;;;24.80;61.30;;;;;;5020231;28;20267;-80
2023/04/23 12:19:03;;;;;;;7.45;6.80;;;24.60;60.90;;;;;;5022266;28;20771;-80
2023/04/23 12:21:30;;;;;;;8.10;7.30;;;24.50;61.50;;;;;;5017528;28;20233;-80
2023/04/23 12:23:57;;;;;;;6.93;6.15;;;24.40;62.10;;;;;;5019905;28;21089;-80
2023/04/23 12:26:26;;;;;;;7.40;6.70;;;24.40;62.90;;;;;;5035403;28;20251;-79
2023/04/23 12:28:55;;;;;;;6.55;5.95;;;24.40;62.20;;;;;;5011290;28;20225;-80
2023/04/23 12:31:23;;;;;;;6.00;5.40;;;24.40;62.20;;;;;;5019737;28;20226;-80
2023/04/23 12:33:58;;;;;;;6.45;5.50;;;24.50;62.50;;;;;;5025497;28;20889;-80
2023/04/23 12:36:28;;;;;;;6.10;5.50;;;24.60;62.00;;;;;;5021678;28;20290;-80
2023/04/23 12:38:54;;;;;;;6.57;5.70;;;24.70;61.00;;;;;;5020050;28;20656;-80
2023/04/23 12:41:22;;;;;;;6.30;5.70;;;24.70;61.70;;;;;;5019220;28;20217;-80
2023/04/23 12:43:50;;;;;;;6.07;5.47;;;24.70;60.50;;;;;;5022396;28;20292;-80